First View, Colorado
Current Conditions -  °F | °C
As of 11:53 AM on Tuesday 27 Jan 2015 (Local Time) from KITR Reporting Station
Clear Clear  
Wind Chill: 72°   Ceiling: Unl
Heat Index: 72°   Visibility: 10mi
Dew Point: 28°   Wind: 15mph
Humidity: 20%   Direction: 220°SW
Pressure: 30.1"   Gusts: NA
Location:  38.8478°N, 102.453°W
Report Text: KITR 271853Z AUTO 22013KT 10SM CLR 22/M02 A3010 RMK AO2 SLP165 T02221022
Loading
Personal Weather Stations






























Interactive Weather Map New forecast layout! Learn more

10-Day Weather Forecast

Advertisements
Track Severe Weather on mobile